logo
Search for airport 
image banner adimage banner adimage banner ad
image banner ad

LKKRIZ - Krizenec

Located in Plana, Czech Republic

ICAO - , IATA -

Data provided by Airmate  

General information

Coordinates: N49°52'14" E12°46'21"
Elevation is 2076 feet MSL.
Magnetic variation is 2° East
View others Airports in Plzen Region

Operational data

Special qualification required
Current time UTC:
Current local time:
Weather at : LKKV - Karlovy Vary ( 38 km )
METAR: LKKV 200630Z 28010KT 9000 -RASN BKN007 OVC016 01/01 Q1008
TAF: TAF LKKV 200500Z 2006/2106 26010KT 9999 BKN011 TEMPO 2006/2010 7000 SNRA BKN004 OVC008 BECMG 2006/2008 34010KT TEMPO 2010/2021 5000 SHRA BKN006 PROB30 TEMPO 2010/2018 35012G22KT 3000 SHRASN BKN004TCU BECMG 2102/2104 VRB02KT 9999 SN BKN009
View NOTAMs / SUP AIP / TFR affecting this airport [VIEW]
Communications frequencies: [VIEW]

Runways:

RWY identifierQFULength (ft)Width (ft)SurfaceLDA (ft)
0879°147649ASPH1476
26259°147649ASPH1476

Airport contact information

Address: Plana Czech Republic

Satellite view of LKKRIZ